This is the latest recevied weather packets stored in our database for station/object DC4XK-10. If no packets are shown the sender has not sent any weather packets the latest 10 day(s).
| Time | Temp. | Humidity | Pressure | Rain* | Wind** | Luminosity | Snow |
|---|---|---|---|---|---|---|---|
| 1777816732 | 25.56° C | 53% | 1007.3 hPa | 0 mm | 0 m/s | - | - |
| 1777816131 | 25° C | 54% | 1007.2 hPa | 0 mm | 0.89 m/s, 240° | - | - |
| 1777815531 | 25° C | 55% | 1007.6 hPa | 0 mm | 0.89 m/s, 238° | - | - |
| 1777814933 | 25° C | 56% | 1007.8 hPa | 0 mm | 0.89 m/s, 174° | - | - |
| 1777814331 | 24.44° C | 56% | 1008.2 hPa | 0 mm | 1.34 m/s, 215° | - | - |
| 1777813731 | 26.67° C | 54% | 1008.3 hPa | 0 mm | 1.79 m/s, 181° | - | - |
| 1777813134 | 25° C | 56% | 1008.5 hPa | 0 mm | 1.34 m/s, 221° | - | - |
| 1777812531 | 24.44° C | 55% | 1008.2 hPa | 0 mm | 0.45 m/s, 173° | - | - |
| 1777811931 | 25° C | 56% | 1008.3 hPa | 0 mm | 1.79 m/s, 212° | - | - |
| 1777811334 | 23.89° C | 59% | 1008.5 hPa | 0 mm | 0.89 m/s, 126° | - | - |
| 1777810731 | 23.33° C | 62% | 1008.6 hPa | 0 mm | 0 m/s | - | - |
| 1777810131 | 22.78° C | 61% | 1008.5 hPa | 0 mm | 1.34 m/s, 202° | - | - |
| 1777809531 | 23.89° C | 60% | 1008.9 hPa | 0 mm | 1.79 m/s, 170° | - | - |
| 1777808931 | 24.44° C | 60% | 1008.9 hPa | 0 mm | 0.89 m/s, 240° | - | - |
| 1777808331 | 24.44° C | 62% | 1009.1 hPa | 0 mm | 0 m/s | - | - |
| 1777807731 | 22.78° C | 63% | 1009.2 hPa | 0 mm | 0.45 m/s, 223° | - | - |
| 1777807131 | 22.22° C | 66% | 1009.1 hPa | 0 mm | 0.89 m/s, 191° | - | - |
| 1777806531 | 22.22° C | 66% | 1009.4 hPa | 0 mm | 0.89 m/s, 278° | - | - |
| 1777805931 | 21.67° C | 66% | 1009.4 hPa | 0 mm | 0 m/s | - | - |
| 1777805331 | 21.67° C | 67% | 1009.4 hPa | 0 mm | 1.34 m/s, 129° | - | - |
| 1777804732 | 20.56° C | 72% | 1009.6 hPa | 0 mm | 0.45 m/s, 268° | - | - |
| 1777804131 | 20° C | 76% | 1009.8 hPa | 0 mm | 0.45 m/s, 175° | - | - |
| 1777803530 | 20° C | 76% | 1010 hPa | 0 mm | 0.89 m/s, 194° | - | - |
| 1777802932 | 19.44° C | 76% | 1009.7 hPa | 0 mm | 0.45 m/s, 205° | - | - |
| 1777802331 | 18.89° C | 78% | 1009.9 hPa | 0 mm | 0 m/s | - | - |
* Rain latest hour (hover to see other rain measurements)
** Current wind speed in m/s (hover to see current wind gust speed)